Time;durP1;ratioP1;P1;durP2;ratioP2;P2;SDS_P1;SDS_P2;PMS_P1;PMS_P2;Temp;Humidity;BMP_temperature;BMP_pressure;BME280_temperature;BME280_humidity;BME280_pressure;Samples;Min_cycle;Max_cycle;Signal;HPM_P1;HPM_P2
2022/05/19 00:02:22;;;;;;;1.55;1.20;;;25.40;47.50;;;;;;5019884;28;20426;-65
2022/05/19 00:04:48;;;;;;;1.80;1.10;;;25.40;47.50;;;;;;5019947;28;20115;-66
2022/05/19 00:07:14;;;;;;;1.27;1.00;;;25.40;47.50;;;;;;5019166;28;20017;-65
2022/05/19 00:09:41;;;;;;;1.42;1.00;;;25.40;47.50;;;;;;5021424;28;20623;-66
2022/05/19 00:12:11;;;;;;;1.30;1.10;;;25.40;47.50;;;;;;5018370;28;20148;-65
2022/05/19 00:14:37;;;;;;;1.83;1.10;;;25.40;47.50;;;;;;5020307;28;20052;-68
2022/05/19 00:17:04;;;;;;;1.10;0.93;;;25.40;47.60;;;;;;5015904;28;20086;-65
2022/05/19 00:19:29;;;;;;;2.25;1.10;;;25.40;47.60;;;;;;5023355;28;20025;-68
2022/05/19 00:21:55;;;;;;;1.42;1.02;;;25.40;47.60;;;;;;5021540;28;20035;-64
2022/05/19 00:24:22;;;;;;;1.75;1.10;;;25.40;47.50;;;;;;5022552;28;20037;-68
2022/05/19 00:26:47;;;;;;;1.58;1.10;;;25.40;47.60;;;;;;5016140;28;20029;-68
2022/05/19 00:29:13;;;;;;;1.55;1.00;;;25.40;47.60;;;;;;5020427;28;20412;-64
2022/05/19 00:31:39;;;;;;;1.10;1.00;;;25.40;47.60;;;;;;5018660;28;20102;-67
2022/05/19 00:34:05;;;;;;;1.30;1.00;;;25.40;47.60;;;;;;5026017;28;20021;-64
2022/05/19 00:36:30;;;;;;;2.35;1.10;;;25.40;48.10;;;;;;5022828;28;20028;-66
2022/05/19 00:38:56;;;;;;;1.48;0.95;;;25.40;47.70;;;;;;5019825;28;20029;-68
2022/05/19 00:41:22;;;;;;;1.80;1.10;;;25.40;47.70;;;;;;5017837;28;20026;-68
2022/05/19 00:44:00;;;;;;;1.38;0.98;;;25.40;47.70;;;;;;5016287;28;20035;-67
2022/05/19 00:46:34;;;;;;;1.40;1.00;;;25.30;47.60;;;;;;5019858;28;20030;-63
2022/05/19 00:49:06;;;;;;;2.55;1.08;;;25.30;47.60;;;;;;5019073;28;20639;-68
2022/05/19 00:51:44;;;;;;;1.35;1.00;;;25.30;47.60;;;;;;5020435;28;20025;-67
2022/05/19 00:54:15;;;;;;;2.08;1.13;;;25.40;47.70;;;;;;5017601;28;20131;-66
2022/05/19 00:56:49;;;;;;;1.60;1.10;;;25.40;47.70;;;;;;5014939;28;20107;-67
2022/05/19 00:59:23;;;;;;;1.33;1.00;;;25.30;47.60;;;;;;5012792;28;20510;-67
2022/05/19 01:01:49;;;;;;;1.10;1.00;;;25.30;47.70;;;;;;5015530;28;20060;-67
2022/05/19 01:04:41;;;;;;;1.10;1.00;;;25.40;47.70;;;;;;5016839;28;20168;-67
2022/05/19 01:07:15;;;;;;;1.65;1.00;;;25.30;47.60;;;;;;5016572;28;20033;-67
2022/05/19 01:09:42;;;;;;;1.20;1.00;;;25.30;47.70;;;;;;5016411;28;20083;-67
2022/05/19 01:12:09;;;;;;;1.10;1.00;;;25.30;47.70;;;;;;5014676;28;20033;-69
2022/05/19 01:14:35;;;;;;;1.17;1.08;;;25.30;47.70;;;;;;5014922;28;20116;-67
2022/05/19 01:17:04;;;;;;;1.40;0.90;;;25.30;47.70;;;;;;5014588;28;20052;-68
2022/05/19 01:19:34;;;;;;;;;;;25.30;47.70;;;;;;5020547;28;20075;-65
2022/05/19 01:22:25;;;;;;;1.80;1.00;;;25.30;47.70;;;;;;5017675;28;19951;-67
2022/05/19 01:25:15;;;;;;;1.40;1.00;;;25.30;47.70;;;;;;5015033;28;20076;-67
2022/05/19 01:27:41;;;;;;;1.45;1.10;;;25.30;47.70;;;;;;5012339;28;20135;-68
2022/05/19 01:30:10;;;;;;;1.10;1.00;;;25.30;47.70;;;;;;5014996;28;20036;-67
2022/05/19 01:32:36;;;;;;;1.48;1.00;;;25.30;47.70;;;;;;5015180;28;20540;-67
2022/05/19 01:35:03;;;;;;;1.30;0.90;;;25.30;47.70;;;;;;5016501;28;20037;-67
2022/05/19 01:37:29;;;;;;;1.83;1.13;;;25.20;47.70;;;;;;5015040;28;20179;-67
2022/05/19 01:40:14;;;;;;;1.27;1.00;;;25.20;47.70;;;;;;5026567;28;20054;-63
2022/05/19 01:43:06;;;;;;;1.20;0.90;;;25.20;47.70;;;;;;5014093;28;20021;-67
2022/05/19 01:45:45;;;;;;;1.10;0.98;;;25.20;47.80;;;;;;5016484;28;20036;-67
2022/05/19 01:49:03;;;;;;;1.20;1.10;;;25.20;47.70;;;;;;5014845;28;20095;-68
2022/05/19 01:51:38;;;;;;;1.17;0.90;;;25.20;47.70;;;;;;4989306;28;20033;-67
2022/05/19 01:54:28;;;;;;;1.00;0.90;;;25.20;47.70;;;;;;5013290;28;20112;-67
2022/05/19 01:56:57;;;;;;;1.02;0.82;;;25.20;47.70;;;;;;5012192;28;20033;-67
2022/05/19 01:59:49;;;;;;;1.30;1.00;;;25.20;47.80;;;;;;5015956;28;20034;-68
2022/05/19 02:02:23;;;;;;;1.48;1.10;;;25.20;47.80;;;;;;5013798;28;20118;-65
2022/05/19 02:05:20;;;;;;;1.08;0.98;;;25.20;47.80;;;;;;5015330;28;20041;-67
2022/05/19 02:07:50;;;;;;;1.20;0.90;;;25.20;47.80;;;;;;4983376;28;20037;-65
2022/05/19 02:10:23;;;;;;;1.10;0.95;;;25.20;47.80;;;;;;5016770;28;20025;-67
2022/05/19 02:12:49;;;;;;;1.17;1.00;;;25.20;48.30;;;;;;5010623;28;20113;-65
2022/05/19 02:15:18;;;;;;;1.40;0.90;;;25.20;48.30;;;;;;5020543;28;20044;-68
2022/05/19 02:17:46;;;;;;;1.55;1.10;;;25.10;47.80;;;;;;5015028;28;20044;-67
2022/05/19 02:20:15;;;;;;;1.67;1.00;;;25.10;47.80;;;;;;5014740;28;20122;-68
2022/05/19 02:22:43;;;;;;;1.30;0.98;;;25.10;47.80;;;;;;5015849;28;20068;-68
2022/05/19 02:25:20;;;;;;;1.13;0.90;;;25.10;47.70;;;;;;5014508;28;20068;-68
2022/05/19 02:27:52;;;;;;;1.55;1.02;;;25.10;47.80;;;;;;5012160;28;20727;-67
2022/05/19 02:30:24;;;;;;;1.00;0.90;;;25.10;47.80;;;;;;5014892;28;20052;-68
2022/05/19 02:32:50;;;;;;;1.10;0.88;;;25.10;47.80;;;;;;5017287;28;20033;-64
2022/05/19 02:35:16;;;;;;;1.33;0.90;;;25.10;47.80;;;;;;5016606;28;20126;-64
2022/05/19 02:37:43;;;;;;;1.20;1.00;;;25.10;47.80;;;;;;5016023;28;20033;-67
2022/05/19 02:40:11;;;;;;;1.40;1.02;;;25.10;47.80;;;;;;5017196;28;20038;-65
2022/05/19 02:42:37;;;;;;;1.48;0.90;;;25.10;47.80;;;;;;5013609;28;20021;-65
2022/05/19 02:45:03;;;;;;;0.90;0.80;;;25.10;47.90;;;;;;5015721;28;20041;-65
2022/05/19 02:47:28;;;;;;;1.48;1.00;;;25.10;47.80;;;;;;5013572;28;20072;-66
2022/05/19 02:49:54;;;;;;;1.00;0.88;;;25.10;47.90;;;;;;5016154;28;20056;-67
2022/05/19 02:52:20;;;;;;;1.40;1.00;;;25.10;47.90;;;;;;5013281;28;20368;-67
2022/05/19 02:54:45;;;;;;;0.88;0.80;;;25.10;47.90;;;;;;5017034;28;20045;-68
2022/05/19 02:57:11;;;;;;;1.42;1.13;;;25.10;47.90;;;;;;5012964;28;20033;-67
2022/05/19 02:59:37;;;;;;;1.05;0.95;;;25.10;47.90;;;;;;5020620;28;20029;-67
2022/05/19 03:02:03;;;;;;;1.00;0.90;;;25.10;47.90;;;;;;5020373;28;20077;-68
2022/05/19 03:04:28;;;;;;;1.10;0.90;;;25.10;47.90;;;;;;5019253;28;20124;-68
2022/05/19 03:06:54;;;;;;;0.90;0.80;;;25.10;47.90;;;;;;5017919;28;20139;-67
2022/05/19 03:09:21;;;;;;;1.00;0.90;;;25.00;47.90;;;;;;5029584;28;20131;-65
2022/05/19 03:11:47;;;;;;;1.15;0.90;;;25.00;47.90;;;;;;4999981;28;20029;-67
2022/05/19 03:14:13;;;;;;;0.80;0.80;;;25.00;47.80;;;;;;5017939;28;20497;-67
2022/05/19 03:16:39;;;;;;;0.95;0.82;;;25.00;47.90;;;;;;5018128;28;20036;-68
2022/05/19 03:19:05;;;;;;;1.00;0.90;;;25.00;47.80;;;;;;5019338;28;20186;-67
2022/05/19 03:21:31;;;;;;;0.88;0.88;;;25.00;47.90;;;;;;5019860;28;20861;-67
2022/05/19 03:23:57;;;;;;;1.40;0.90;;;25.00;47.90;;;;;;5017068;28;20458;-67
2022/05/19 03:26:23;;;;;;;1.92;1.10;;;25.00;47.90;;;;;;5018104;28;20026;-65
2022/05/19 03:28:48;;;;;;;1.17;0.90;;;25.00;47.90;;;;;;5017891;28;20045;-67
2022/05/19 03:31:14;;;;;;;0.85;0.82;;;25.00;47.90;;;;;;5019334;28;20120;-67
2022/05/19 03:33:40;;;;;;;0.85;0.80;;;25.00;47.90;;;;;;5019741;28;20025;-65
2022/05/19 03:36:06;;;;;;;1.05;0.80;;;25.00;47.90;;;;;;5022081;28;20033;-66
2022/05/19 03:38:32;;;;;;;0.70;0.70;;;25.00;47.90;;;;;;5017794;28;20116;-66
2022/05/19 03:40:58;;;;;;;1.35;0.90;;;25.00;47.90;;;;;;5019522;28;20036;-66
2022/05/19 03:43:23;;;;;;;1.67;0.73;;;25.00;47.90;;;;;;5017470;28;20032;-65
2022/05/19 03:45:49;;;;;;;0.85;0.80;;;25.00;47.90;;;;;;5016726;28;20052;-65
2022/05/19 03:48:15;;;;;;;0.95;0.80;;;25.00;47.90;;;;;;5019597;28;20108;-63
2022/05/19 03:50:45;;;;;;;0.70;0.70;;;25.00;47.90;;;;;;5021349;28;20087;-62
2022/05/19 03:53:11;;;;;;;1.00;0.82;;;25.00;47.90;;;;;;5018533;28;20480;-65
2022/05/19 03:55:37;;;;;;;1.15;0.90;;;24.90;48.40;;;;;;5001967;28;20040;-65
2022/05/19 03:58:03;;;;;;;1.10;0.90;;;24.90;47.90;;;;;;5013694;28;20505;-66
2022/05/19 04:00:29;;;;;;;1.00;0.90;;;24.90;47.90;;;;;;5017230;28;20052;-63
2022/05/19 04:02:54;;;;;;;1.02;0.80;;;24.90;47.90;;;;;;5018657;28;20060;-66
2022/05/19 04:05:20;;;;;;;0.88;0.80;;;24.90;47.90;;;;;;5021913;28;20534;-66
2022/05/19 04:07:46;;;;;;;0.85;0.82;;;24.90;47.90;;;;;;5020679;28;20037;-66
2022/05/19 04:10:12;;;;;;;0.70;0.70;;;24.90;47.90;;;;;;5018486;28;20539;-64
2022/05/19 04:12:39;;;;;;;1.10;0.80;;;24.90;47.90;;;;;;5015767;28;20071;-64
2022/05/19 04:15:06;;;;;;;0.80;0.70;;;24.90;47.90;;;;;;5017783;28;20125;-66
2022/05/19 04:17:33;;;;;;;0.77;0.77;;;24.90;47.90;;;;;;5020224;28;20453;-63
2022/05/19 04:20:06;;;;;;;0.80;0.80;;;24.90;47.90;;;;;;5023799;28;20375;-66
2022/05/19 04:22:32;;;;;;;1.23;0.80;;;24.90;48.40;;;;;;5018444;28;20933;-65
2022/05/19 04:25:00;;;;;;;1.10;0.88;;;24.90;47.90;;;;;;5020917;28;20036;-64
2022/05/19 04:27:27;;;;;;;1.25;0.80;;;24.90;47.90;;;;;;5017481;28;20033;-65
2022/05/19 04:29:54;;;;;;;1.13;0.93;;;24.90;47.90;;;;;;5019970;28;20040;-64
2022/05/19 04:32:19;;;;;;;1.35;0.85;;;24.90;47.80;;;;;;5016574;28;20071;-62
2022/05/19 04:34:45;;;;;;;1.00;0.80;;;24.90;47.90;;;;;;5018862;28;20104;-63
2022/05/19 04:37:11;;;;;;;1.02;0.80;;;24.90;47.90;;;;;;5019841;28;20167;-64
2022/05/19 04:39:36;;;;;;;0.85;0.80;;;24.80;47.80;;;;;;5020135;28;21414;-64
2022/05/19 04:42:13;;;;;;;1.15;0.80;;;24.80;48.30;;;;;;5012340;28;20037;-66
2022/05/19 04:44:40;;;;;;;1.17;0.70;;;24.80;47.80;;;;;;5019103;28;20061;-62
2022/05/19 04:47:06;;;;;;;1.00;0.90;;;24.80;47.80;;;;;;5020065;28;20087;-64
2022/05/19 04:49:32;;;;;;;0.88;0.80;;;24.80;47.80;;;;;;5019057;28;20021;-64
2022/05/19 04:51:58;;;;;;;1.00;0.90;;;24.80;47.80;;;;;;5019471;28;20033;-65
2022/05/19 04:54:23;;;;;;;0.90;0.70;;;24.80;47.80;;;;;;5018153;28;20048;-65
2022/05/19 04:56:50;;;;;;;0.75;0.70;;;24.80;47.70;;;;;;5016334;28;20166;-65
2022/05/19 04:59:16;;;;;;;1.13;0.80;;;24.80;47.70;;;;;;5016516;28;20029;-64
2022/05/19 05:01:43;;;;;;;0.88;0.77;;;24.80;47.70;;;;;;5019045;28;20044;-65
2022/05/19 05:04:09;;;;;;;0.93;0.80;;;24.80;47.70;;;;;;5020015;28;20382;-64
2022/05/19 05:06:34;;;;;;;0.90;0.70;;;24.80;47.70;;;;;;5018385;28;20108;-61
2022/05/19 05:09:00;;;;;;;1.08;0.80;;;24.80;47.70;;;;;;5018126;28;20129;-65
2022/05/19 05:11:26;;;;;;;0.80;0.80;;;24.80;47.70;;;;;;5018880;28;20029;-65
2022/05/19 05:13:51;;;;;;;1.10;0.80;;;24.80;47.60;;;;;;5014372;28;20025;-66
2022/05/19 05:16:17;;;;;;;0.93;0.70;;;24.80;47.60;;;;;;5019382;28;20080;-66
2022/05/19 05:18:42;;;;;;;0.73;0.70;;;24.80;47.60;;;;;;5019798;28;20041;-66
2022/05/19 05:21:11;;;;;;;1.00;0.80;;;24.80;47.60;;;;;;5018629;28;20033;-65
2022/05/19 05:23:37;;;;;;;0.85;0.80;;;24.80;47.60;;;;;;5017992;28;21298;-64
2022/05/19 05:26:03;;;;;;;0.73;0.70;;;24.70;47.60;;;;;;5017039;28;20041;-65
2022/05/19 05:28:30;;;;;;;0.93;0.85;;;24.70;47.80;;;;;;5015287;28;20446;-65
2022/05/19 05:30:56;;;;;;;1.42;0.85;;;24.70;47.70;;;;;;5016451;28;20444;-63
2022/05/19 05:33:22;;;;;;;1.63;0.80;;;24.70;47.70;;;;;;5018870;28;20032;-63
2022/05/19 05:35:47;;;;;;;1.00;0.90;;;24.70;47.60;;;;;;5018653;28;20032;-66
2022/05/19 05:38:13;;;;;;;0.95;0.80;;;24.70;47.60;;;;;;5017836;28;20029;-64
2022/05/19 05:40:39;;;;;;;1.05;0.75;;;24.70;47.60;;;;;;5019121;28;20029;-63
2022/05/19 05:43:11;;;;;;;1.00;0.90;;;24.70;47.60;;;;;;5015992;28;20045;-64
2022/05/19 05:45:37;;;;;;;0.98;0.77;;;24.70;47.60;;;;;;5023980;28;20021;-65
2022/05/19 05:48:04;;;;;;;1.20;0.80;;;24.70;47.50;;;;;;5018593;28;20052;-64
2022/05/19 05:50:30;;;;;;;1.23;0.80;;;24.70;47.60;;;;;;5019588;28;20418;-65
2022/05/19 05:52:56;;;;;;;1.02;0.80;;;24.70;47.50;;;;;;5017894;28;20044;-64
2022/05/19 05:55:21;;;;;;;1.42;0.80;;;24.70;47.50;;;;;;5018350;28;20040;-65
2022/05/19 05:57:47;;;;;;;1.10;0.90;;;24.70;47.50;;;;;;5022294;28;20036;-65
2022/05/19 06:00:13;;;;;;;1.25;0.90;;;24.70;47.50;;;;;;5019594;28;20033;-62
2022/05/19 06:02:40;;;;;;;1.10;0.90;;;24.70;47.60;;;;;;5018883;28;20815;-65
2022/05/19 06:05:06;;;;;;;1.40;0.90;;;24.60;47.50;;;;;;5021667;28;20071;-65
2022/05/19 06:07:32;;;;;;;1.25;1.00;;;24.60;47.50;;;;;;4999060;28;20084;-63
2022/05/19 06:09:58;;;;;;;1.10;0.90;;;24.60;47.50;;;;;;5019770;28;20442;-65
2022/05/19 06:12:25;;;;;;;1.52;0.80;;;24.60;47.50;;;;;;4999628;28;20091;-65
2022/05/19 06:14:53;;;;;;;1.52;1.00;;;24.60;47.50;;;;;;4999745;28;20033;-66
2022/05/19 06:17:19;;;;;;;1.63;0.90;;;24.60;47.50;;;;;;5018188;28;20021;-66
2022/05/19 06:19:44;;;;;;;0.93;0.80;;;24.60;47.50;;;;;;5019617;28;20396;-65
2022/05/19 06:22:10;;;;;;;1.45;0.80;;;24.60;47.50;;;;;;5017595;28;20055;-66
2022/05/19 06:24:36;;;;;;;1.23;0.80;;;24.60;47.50;;;;;;5016674;28;20137;-63
2022/05/19 06:27:01;;;;;;;2.05;0.90;;;24.60;47.50;;;;;;5014306;28;20721;-65
2022/05/19 06:29:27;;;;;;;1.23;0.90;;;24.60;47.50;;;;;;5015915;28;20056;-62
2022/05/19 06:31:53;;;;;;;0.98;0.77;;;24.60;47.50;;;;;;5015027;28;20037;-61
2022/05/19 06:34:18;;;;;;;1.23;0.90;;;24.60;47.50;;;;;;5019262;28;20112;-64
2022/05/19 06:36:44;;;;;;;1.30;0.85;;;24.60;47.50;;;;;;5022392;28;20152;-61
2022/05/19 06:39:09;;;;;;;1.60;1.00;;;24.60;47.50;;;;;;5021534;28;20049;-65
2022/05/19 06:44:19;;;;;;;1.50;0.90;;;24.60;48.10;;;;;;5021983;28;20098;-65
2022/05/19 06:46:46;;;;;;;1.23;0.88;;;24.60;47.50;;;;;;5021450;28;20053;-64
2022/05/19 06:49:12;;;;;;;1.25;0.85;;;24.60;47.50;;;;;;5020789;28;20029;-64
2022/05/19 06:51:38;;;;;;;1.00;0.80;;;24.50;47.50;;;;;;5019686;28;20060;-65
2022/05/19 06:54:04;;;;;;;1.20;0.85;;;24.50;47.50;;;;;;5023016;28;20076;-62
2022/05/19 06:56:30;;;;;;;1.00;0.80;;;24.60;47.60;;;;;;5022528;28;20073;-65
2022/05/19 06:58:56;;;;;;;1.55;1.02;;;24.60;47.60;;;;;;5019666;28;20473;-65
2022/05/19 07:01:22;;;;;;;1.35;0.90;;;24.60;47.50;;;;;;5022526;28;20634;-64
2022/05/19 07:03:48;;;;;;;1.55;1.00;;;24.60;47.60;;;;;;5022879;28;20052;-65
2022/05/19 07:06:14;;;;;;;1.40;1.00;;;24.50;47.50;;;;;;5023132;28;20487;-65
2022/05/19 07:08:40;;;;;;;1.15;0.93;;;24.50;47.50;;;;;;5023393;28;20049;-65
2022/05/19 07:11:24;;;;;;;0.70;0.70;;;24.60;47.50;;;;;;5021168;28;20049;-66
2022/05/19 07:13:54;;;;;;;1.50;0.93;;;24.50;47.50;;;;;;5019819;28;20029;-62
2022/05/19 07:16:20;;;;;;;1.95;0.80;;;24.50;47.50;;;;;;5023017;28;20029;-65
2022/05/19 07:18:45;;;;;;;1.83;1.00;;;24.50;47.50;;;;;;5023095;28;20136;-65
2022/05/19 07:21:12;;;;;;;1.20;0.90;;;24.50;47.50;;;;;;5021265;28;20465;-65
2022/05/19 07:23:39;;;;;;;1.52;1.08;;;24.50;47.50;;;;;;5022685;28;20033;-61
2022/05/19 07:26:05;;;;;;;1.40;1.10;;;24.50;47.50;;;;;;5023400;28;20029;-64
2022/05/19 07:28:31;;;;;;;1.27;1.00;;;24.50;47.50;;;;;;5019578;28;20025;-64
2022/05/19 07:30:57;;;;;;;1.13;0.90;;;24.50;47.50;;;;;;5021172;28;20496;-62
2022/05/19 07:33:23;;;;;;;1.52;0.95;;;24.50;47.50;;;;;;5022655;28;20033;-64
2022/05/19 07:35:50;;;;;;;1.10;0.90;;;24.50;47.50;;;;;;5028944;28;20029;-65
2022/05/19 07:38:16;;;;;;;1.25;0.93;;;24.50;47.50;;;;;;5002159;28;20107;-65
2022/05/19 07:40:44;;;;;;;1.80;0.95;;;24.50;47.50;;;;;;5019998;28;20097;-66
2022/05/19 07:45:54;;;;;;;1.48;1.00;;;24.50;47.50;;;;;;5020150;28;20036;-66
2022/05/19 07:48:20;;;;;;;0.90;0.90;;;24.50;47.50;;;;;;5020849;28;20489;-65
2022/05/19 07:50:46;;;;;;;0.98;0.80;;;24.50;47.50;;;;;;5019886;28;20029;-65
2022/05/19 07:53:11;;;;;;;1.90;1.00;;;24.50;47.50;;;;;;5019800;28;20049;-65
2022/05/19 07:55:37;;;;;;;1.60;0.98;;;24.50;47.50;;;;;;5023387;28;20769;-65
2022/05/19 07:58:03;;;;;;;1.20;0.90;;;24.50;47.50;;;;;;5017722;28;20121;-61
2022/05/19 08:00:29;;;;;;;1.75;1.00;;;24.50;47.50;;;;;;5020925;28;20397;-66
2022/05/19 08:02:55;;;;;;;1.30;0.90;;;24.50;47.40;;;;;;5020220;28;21567;-64
2022/05/19 08:05:21;;;;;;;1.65;1.00;;;24.50;47.50;;;;;;5020088;28;20047;-65
2022/05/19 08:07:46;;;;;;;1.00;0.90;;;24.50;47.40;;;;;;5020659;28;20102;-64
2022/05/19 08:10:23;;;;;;;1.17;0.80;;;24.50;47.40;;;;;;5020723;28;20112;-65
2022/05/19 08:15:36;;;;;;;1.00;0.90;;;24.50;47.40;;;;;;5020699;28;20092;-66
2022/05/19 08:18:22;;;;;;;1.47;0.93;;;24.50;47.40;;;;;;5002886;28;20026;-62
2022/05/19 08:20:57;;;;;;;1.52;0.90;;;24.50;47.40;;;;;;5021117;28;20029;-64
2022/05/19 08:23:34;;;;;;;1.35;0.93;;;24.50;47.40;;;;;;5020712;28;20037;-66
2022/05/19 08:26:01;;;;;;;1.48;0.90;;;24.50;47.40;;;;;;5022701;28;20105;-64
2022/05/19 08:28:33;;;;;;;1.52;0.90;;;24.60;47.50;;;;;;5018674;28;20028;-64
2022/05/19 08:31:10;;;;;;;1.60;1.13;;;24.50;47.40;;;;;;5019566;28;20085;-65
2022/05/19 08:33:37;;;;;;;1.65;1.10;;;24.50;47.40;;;;;;5022385;28;20047;-65
2022/05/19 08:36:04;;;;;;;1.50;0.98;;;24.50;47.40;;;;;;5021792;28;20835;-64
2022/05/19 08:38:31;;;;;;;1.17;0.90;;;24.60;47.40;;;;;;5018381;28;20104;-65
2022/05/19 08:41:17;;;;;;;1.27;0.93;;;24.60;47.40;;;;;;5018810;28;21253;-65
2022/05/19 08:43:51;;;;;;;1.23;0.90;;;24.60;47.40;;;;;;5015962;28;20102;-65
2022/05/19 08:46:46;;;;;;;1.80;1.13;;;24.60;47.40;;;;;;5002882;28;20260;-64
2022/05/19 08:49:41;;;;;;;1.40;0.88;;;24.60;47.40;;;;;;5020189;28;20045;-64
2022/05/19 08:52:12;;;;;;;1.40;1.00;;;24.60;47.50;;;;;;5018088;28;20500;-65
2022/05/19 08:54:41;;;;;;;1.58;1.00;;;24.60;48.00;;;;;;5020033;28;20704;-65
2022/05/19 08:57:30;;;;;;;1.20;0.80;;;24.50;47.40;;;;;;5013664;28;20111;-65
2022/05/19 08:59:59;;;;;;;1.23;0.90;;;24.50;47.40;;;;;;5019308;28;20513;-65
2022/05/19 09:02:58;;;;;;;1.15;0.93;;;24.50;47.40;;;;;;5016948;28;20033;-64
2022/05/19 09:05:46;;;;;;;1.02;0.80;;;24.50;47.40;;;;;;5020548;28;20037;-62
2022/05/19 09:08:21;;;;;;;1.00;0.90;;;24.50;47.40;;;;;;5019098;28;20769;-65
2022/05/19 09:11:07;;;;;;;1.92;0.90;;;24.50;47.40;;;;;;5021429;28;20032;-64
2022/05/19 09:13:51;;;;;;;1.35;0.90;;;24.50;47.40;;;;;;5000786;28;20033;-63
2022/05/19 09:16:24;;;;;;;1.80;1.00;;;24.50;47.40;;;;;;5020436;28;20534;-65
2022/05/19 09:19:01;;;;;;;1.52;0.90;;;24.50;47.40;;;;;;5017884;28;20644;-62
2022/05/19 09:21:27;;;;;;;1.33;0.95;;;24.50;47.50;;;;;;5022173;28;20025;-65
2022/05/19 09:23:53;;;;;;;1.35;1.00;;;24.50;47.50;;;;;;5019950;28;20025;-65
2022/05/19 09:26:47;;;;;;;1.20;0.93;;;24.50;47.50;;;;;;5019880;28;20030;-65
2022/05/19 09:29:17;;;;;;;1.35;0.90;;;24.50;47.50;;;;;;5015324;28;20068;-66
2022/05/19 09:31:52;;;;;;;1.45;0.80;;;24.50;47.50;;;;;;5016388;28;20498;-62
2022/05/19 09:34:21;;;;;;;1.30;1.00;;;24.50;47.50;;;;;;5019145;28;20032;-64
2022/05/19 09:36:54;;;;;;;1.23;0.90;;;24.50;47.50;;;;;;5021298;28;20025;-66
2022/05/19 09:39:20;;;;;;;1.85;0.90;;;24.50;48.00;;;;;;5015980;28;20163;-66
2022/05/19 09:41:53;;;;;;;1.55;1.02;;;24.50;47.50;;;;;;5016274;28;21717;-63
2022/05/19 09:44:28;;;;;;;1.58;1.00;;;24.50;47.50;;;;;;5017236;28;20020;-63
2022/05/19 09:46:54;;;;;;;1.00;0.90;;;24.50;47.50;;;;;;5014681;28;20033;-64
2022/05/19 09:49:30;;;;;;;1.40;0.80;;;24.50;47.50;;;;;;5018380;28;20076;-65
2022/05/19 09:52:05;;;;;;;1.02;0.80;;;24.50;47.60;;;;;;5018464;28;20068;-63
2022/05/19 09:54:33;;;;;;;1.50;1.00;;;24.50;47.50;;;;;;5016994;28;20037;-61
2022/05/19 09:57:10;;;;;;;0.98;0.80;;;24.50;47.50;;;;;;5015734;28;21021;-65
2022/05/19 09:59:48;;;;;;;1.30;0.90;;;24.60;47.50;;;;;;5017660;28;20115;-65
2022/05/19 10:02:38;;;;;;;1.35;1.02;;;24.60;48.10;;;;;;5018032;28;20041;-64
2022/05/19 10:05:22;;;;;;;1.02;0.80;;;24.60;47.50;;;;;;5018408;28;20041;-64
2022/05/19 10:07:50;;;;;;;1.30;1.00;;;24.60;47.50;;;;;;5019347;28;20035;-63
2022/05/19 10:10:24;;;;;;;1.75;1.00;;;24.60;47.60;;;;;;5019382;28;20030;-64
2022/05/19 10:12:54;;;;;;;1.10;0.80;;;24.60;47.60;;;;;;5014517;28;20608;-66
2022/05/19 10:15:22;;;;;;;;;;;24.60;47.60;;;;;;5018775;28;20628;-63
2022/05/19 10:17:55;;;;;;;1.75;1.00;;;24.60;47.60;;;;;;5018216;28;19919;-63
2022/05/19 10:20:24;;;;;;;1.10;0.80;;;24.60;47.60;;;;;;5018101;28;20028;-65
2022/05/19 10:23:04;;;;;;;1.42;0.88;;;24.60;47.60;;;;;;5017566;28;20083;-64
2022/05/19 10:25:36;;;;;;;1.85;1.00;;;24.60;47.60;;;;;;5017023;28;20556;-63
2022/05/19 10:31:37;;;;;;;1.42;0.95;;;24.60;47.60;;;;;;4981324;28;20565;-64
2022/05/19 10:34:21;;;;;;;1.00;0.80;;;24.60;47.70;;;;;;4965293;28;20655;-65
2022/05/19 10:37:07;;;;;;;1.00;0.77;;;24.60;47.70;;;;;;5001349;28;20124;-65
2022/05/19 10:40:10;;;;;;;1.10;1.00;;;24.60;47.70;;;;;;5019341;28;20369;-64
2022/05/19 10:42:47;;;;;;;0.80;0.80;;;24.60;47.60;;;;;;4995926;28;20512;-62
2022/05/19 10:45:18;;;;;;;0.95;0.82;;;24.60;47.70;;;;;;5017024;28;20037;-64
2022/05/19 10:48:12;;;;;;;0.88;0.80;;;24.60;47.60;;;;;;5016811;28;20719;-65
2022/05/19 10:50:51;;;;;;;1.20;0.90;;;24.60;47.70;;;;;;5016663;28;20026;-65
2022/05/19 10:53:35;;;;;;;1.38;0.93;;;24.60;47.70;;;;;;5018486;28;20900;-64
2022/05/19 10:56:17;;;;;;;0.98;0.80;;;24.60;47.70;;;;;;5016738;28;20733;-62
2022/05/19 10:59:05;;;;;;;1.10;0.80;;;24.60;48.20;;;;;;5014985;28;20525;-65
2022/05/19 11:02:01;;;;;;;1.40;0.93;;;24.60;47.70;;;;;;5018310;28;20033;-62
2022/05/19 11:04:39;;;;;;;1.20;0.85;;;24.60;47.70;;;;;;5007923;28;20059;-65
2022/05/19 11:07:04;;;;;;;1.05;0.70;;;24.60;47.70;;;;;;5015683;28;20486;-65
2022/05/19 11:09:54;;;;;;;1.05;0.80;;;24.60;47.70;;;;;;5021962;28;20029;-64
2022/05/19 11:12:27;;;;;;;0.77;0.75;;;24.60;47.70;;;;;;5015920;28;20056;-64
2022/05/19 11:15:18;;;;;;;1.20;0.80;;;24.60;47.70;;;;;;5018738;28;20037;-66
2022/05/19 11:18:08;;;;;;;2.50;0.90;;;24.60;47.70;;;;;;5016526;28;20103;-62
2022/05/19 11:20:56;;;;;;;1.10;0.85;;;24.60;47.70;;;;;;5015546;28;20198;-65
2022/05/19 11:23:24;;;;;;;1.05;0.80;;;24.60;47.70;;;;;;5020185;28;20033;-64
2022/05/19 11:26:24;;;;;;;1.02;0.85;;;24.60;47.70;;;;;;5020732;28;20037;-65
2022/05/19 11:29:06;;;;;;;0.95;0.80;;;24.60;47.70;;;;;;5016514;28;20037;-61
2022/05/19 11:31:42;;;;;;;0.75;0.75;;;24.60;47.80;;;;;;5021002;28;20042;-64
2022/05/19 11:34:14;;;;;;;1.30;0.90;;;24.60;47.80;;;;;;5021685;28;20128;-65
2022/05/19 11:37:32;;;;;;;1.00;0.70;;;24.60;47.80;;;;;;5019417;28;20037;-65
2022/05/19 11:40:00;;;;;;;1.15;0.82;;;24.60;47.80;;;;;;4981655;28;20033;-64
2022/05/19 11:42:32;;;;;;;0.90;0.80;;;24.60;47.80;;;;;;5017717;28;20633;-65
2022/05/19 11:44:58;;;;;;;1.02;0.80;;;24.60;47.80;;;;;;5020821;28;20021;-65
2022/05/19 11:56:53;;;;;;;1.17;0.82;;;24.60;47.90;;;;;;5016124;28;20040;-66
2022/05/19 11:59:18;;;;;;;0.80;0.80;;;24.60;47.90;;;;;;5020624;28;20036;-62
2022/05/19 12:01:49;;;;;;;0.90;0.80;;;24.60;47.90;;;;;;5017905;28;20050;-65
2022/05/19 12:04:29;;;;;;;1.33;0.90;;;24.60;47.90;;;;;;5020638;28;21307;-64
2022/05/19 12:07:15;;;;;;;1.55;0.90;;;24.60;47.90;;;;;;5017642;28;20655;-65
2022/05/19 12:09:48;;;;;;;1.05;0.90;;;24.60;47.90;;;;;;5013220;28;20740;-65
2022/05/19 12:12:24;;;;;;;0.77;0.77;;;24.60;47.90;;;;;;5013739;28;20037;-65
2022/05/19 12:15:17;;;;;;;1.23;0.90;;;24.70;47.90;;;;;;5017461;28;20029;-64
2022/05/19 12:17:56;;;;;;;0.93;0.80;;;24.70;48.40;;;;;;5017125;28;20088;-65
2022/05/19 12:20:53;;;;;;;1.05;0.70;;;24.70;47.90;;;;;;5016603;28;20025;-65
2022/05/19 12:23:32;;;;;;;0.90;0.80;;;24.70;47.90;;;;;;4994151;28;20033;-65
2022/05/19 12:26:06;;;;;;;0.80;0.80;;;24.70;47.80;;;;;;5014133;28;20025;-65
2022/05/19 12:28:38;;;;;;;1.42;0.90;;;24.70;47.80;;;;;;5013817;28;20032;-64
2022/05/19 12:34:01;;;;;;;0.95;0.80;;;24.70;47.80;;;;;;5016016;28;20077;-67
2022/05/19 12:36:44;;;;;;;1.13;0.70;;;24.70;47.80;;;;;;5014772;28;20025;-64
2022/05/19 12:39:18;;;;;;;1.27;0.90;;;24.70;47.80;;;;;;5013554;28;20065;-63
2022/05/19 12:41:49;;;;;;;1.75;0.90;;;24.70;47.80;;;;;;5012304;28;20506;-66
2022/05/19 12:44:41;;;;;;;1.30;1.00;;;24.70;47.80;;;;;;5012418;28;20573;-66
2022/05/19 12:47:16;;;;;;;0.88;0.80;;;24.70;47.80;;;;;;5006758;28;20101;-67
2022/05/19 12:50:07;;;;;;;0.75;0.73;;;24.70;47.80;;;;;;5013945;28;20029;-65
2022/05/19 12:52:54;;;;;;;1.42;0.85;;;24.70;47.90;;;;;;4993730;28;20045;-64
2022/05/19 12:55:23;;;;;;;1.10;0.80;;;24.70;48.10;;;;;;5014150;28;20029;-65
2022/05/19 12:57:50;;;;;;;1.33;0.80;;;24.70;47.80;;;;;;5011250;28;20099;-62
2022/05/19 13:00:23;;;;;;;1.40;0.70;;;24.70;47.80;;;;;;5013271;28;20041;-66
2022/05/19 13:02:58;;;;;;;0.85;0.70;;;24.80;47.90;;;;;;5013897;28;20021;-66
2022/05/19 13:05:37;;;;;;;1.02;0.80;;;24.80;47.90;;;;;;5012954;28;20039;-67
2022/05/19 13:08:14;;;;;;;1.00;0.80;;;24.80;48.00;;;;;;5014570;28;20029;-63
2022/05/19 13:10:44;;;;;;;0.90;0.70;;;24.80;48.00;;;;;;5014977;28;20485;-66
2022/05/19 13:13:21;;;;;;;0.70;0.70;;;24.80;48.10;;;;;;5011254;28;20037;-66
2022/05/19 13:15:57;;;;;;;1.48;0.90;;;24.80;48.10;;;;;;5014934;28;20029;-66
2022/05/19 13:18:30;;;;;;;0.73;0.70;;;24.80;48.10;;;;;;5014067;28;20115;-65
2022/05/19 13:21:24;;;;;;;0.98;0.82;;;24.80;48.10;;;;;;5017053;28;20590;-64
2022/05/19 13:23:51;;;;;;;0.73;0.65;;;24.80;48.10;;;;;;5014103;28;20102;-67
2022/05/19 13:26:29;;;;;;;1.00;0.75;;;24.80;48.10;;;;;;5014805;28;20036;-65
2022/05/19 13:31:58;;;;;;;1.00;0.68;;;24.80;48.20;;;;;;5015593;28;20626;-63
2022/05/19 13:34:24;;;;;;;1.05;0.80;;;24.80;48.10;;;;;;5015133;28;20044;-62
2022/05/19 13:36:59;;;;;;;2.30;0.82;;;24.80;48.10;;;;;;5014518;28;20041;-66
2022/05/19 13:39:27;;;;;;;1.73;0.70;;;24.90;48.10;;;;;;5017584;28;20486;-67